sensor_id;sensor_type;location;lat;lon;timestamp;P1;durP1;ratioP1;P2;durP2;ratioP2
7957;SDS011;4024;52.172;5.378;2023-11-18T00:01:02;40.87;;;27.73;;
7957;SDS011;4024;52.172;5.378;2023-11-18T00:03:28;41.70;;;27.40;;
7957;SDS011;4024;52.172;5.378;2023-11-18T00:05:54;42.87;;;28.50;;
7957;SDS011;4024;52.172;5.378;2023-11-18T00:08:19;36.70;;;25.07;;
7957;SDS011;4024;52.172;5.378;2023-11-18T00:10:45;45.33;;;28.73;;
7957;SDS011;4024;52.172;5.378;2023-11-18T00:13:12;41.30;;;27.27;;
7957;SDS011;4024;52.172;5.378;2023-11-18T00:15:38;44.17;;;29.17;;
7957;SDS011;4024;52.172;5.378;2023-11-18T00:18:03;42.30;;;28.53;;
7957;SDS011;4024;52.172;5.378;2023-11-18T00:20:29;37.63;;;26.63;;
7957;SDS011;4024;52.172;5.378;2023-11-18T00:22:56;40.53;;;27.37;;
7957;SDS011;4024;52.172;5.378;2023-11-18T00:25:22;41.47;;;28.37;;
7957;SDS011;4024;52.172;5.378;2023-11-18T00:27:47;39.37;;;26.57;;
7957;SDS011;4024;52.172;5.378;2023-11-18T00:30:13;40.67;;;27.93;;
7957;SDS011;4024;52.172;5.378;2023-11-18T00:32:39;40.20;;;27.30;;
7957;SDS011;4024;52.172;5.378;2023-11-18T00:35:05;42.23;;;28.33;;
7957;SDS011;4024;52.172;5.378;2023-11-18T00:37:31;35.13;;;26.33;;
7957;SDS011;4024;52.172;5.378;2023-11-18T00:39:57;36.33;;;25.83;;
7957;SDS011;4024;52.172;5.378;2023-11-18T00:42:23;41.63;;;27.50;;
7957;SDS011;4024;52.172;5.378;2023-11-18T00:44:49;38.97;;;27.37;;
7957;SDS011;4024;52.172;5.378;2023-11-18T00:47:15;43.50;;;28.17;;
7957;SDS011;4024;52.172;5.378;2023-11-18T00:49:40;44.27;;;29.17;;
7957;SDS011;4024;52.172;5.378;2023-11-18T00:52:06;43.30;;;28.20;;
7957;SDS011;4024;52.172;5.378;2023-11-18T00:54:32;40.00;;;27.83;;
7957;SDS011;4024;52.172;5.378;2023-11-18T00:56:57;41.30;;;27.17;;
7957;SDS011;4024;52.172;5.378;2023-11-18T00:59:23;41.20;;;28.37;;
7957;SDS011;4024;52.172;5.378;2023-11-18T01:01:48;44.67;;;28.53;;
7957;SDS011;4024;52.172;5.378;2023-11-18T01:04:14;41.13;;;28.30;;
7957;SDS011;4024;52.172;5.378;2023-11-18T01:06:41;42.67;;;28.13;;
7957;SDS011;4024;52.172;5.378;2023-11-18T01:09:08;41.67;;;27.27;;
7957;SDS011;4024;52.172;5.378;2023-11-18T01:11:34;39.53;;;27.23;;
7957;SDS011;4024;52.172;5.378;2023-11-18T01:14:00;38.27;;;26.60;;
7957;SDS011;4024;52.172;5.378;2023-11-18T01:16:27;37.33;;;26.57;;
7957;SDS011;4024;52.172;5.378;2023-11-18T01:18:53;35.30;;;25.53;;
7957;SDS011;4024;52.172;5.378;2023-11-18T01:21:19;37.53;;;26.43;;
7957;SDS011;4024;52.172;5.378;2023-11-18T01:23:45;37.97;;;27.23;;
7957;SDS011;4024;52.172;5.378;2023-11-18T01:26:11;37.27;;;25.93;;
7957;SDS011;4024;52.172;5.378;2023-11-18T01:28:37;36.97;;;26.00;;
7957;SDS011;4024;52.172;5.378;2023-11-18T01:31:08;36.20;;;26.53;;
7957;SDS011;4024;52.172;5.378;2023-11-18T01:33:40;35.77;;;25.67;;
7957;SDS011;4024;52.172;5.378;2023-11-18T01:36:07;36.10;;;26.37;;
7957;SDS011;4024;52.172;5.378;2023-11-18T01:38:33;37.57;;;27.07;;
7957;SDS011;4024;52.172;5.378;2023-11-18T01:40:59;40.30;;;25.17;;
7957;SDS011;4024;52.172;5.378;2023-11-18T01:43:29;39.87;;;26.33;;
7957;SDS011;4024;52.172;5.378;2023-11-18T01:45:56;37.63;;;25.33;;
7957;SDS011;4024;52.172;5.378;2023-11-18T01:48:28;37.30;;;26.57;;
7957;SDS011;4024;52.172;5.378;2023-11-18T01:50:56;37.60;;;25.70;;
7957;SDS011;4024;52.172;5.378;2023-11-18T01:53:23;36.37;;;26.23;;
7957;SDS011;4024;52.172;5.378;2023-11-18T01:55:49;38.13;;;25.67;;
7957;SDS011;4024;52.172;5.378;2023-11-18T01:58:15;36.07;;;25.40;;
7957;SDS011;4024;52.172;5.378;2023-11-18T02:00:44;36.10;;;25.07;;
7957;SDS011;4024;52.172;5.378;2023-11-18T02:03:14;35.57;;;24.87;;
7957;SDS011;4024;52.172;5.378;2023-11-18T02:05:41;38.40;;;26.53;;
7957;SDS011;4024;52.172;5.378;2023-11-18T02:08:07;37.10;;;26.33;;
7957;SDS011;4024;52.172;5.378;2023-11-18T02:10:33;38.40;;;26.50;;
7957;SDS011;4024;52.172;5.378;2023-11-18T02:13:06;37.37;;;26.33;;
7957;SDS011;4024;52.172;5.378;2023-11-18T02:15:53;35.23;;;24.57;;
7957;SDS011;4024;52.172;5.378;2023-11-18T02:18:22;40.23;;;27.13;;
7957;SDS011;4024;52.172;5.378;2023-11-18T02:20:54;37.50;;;26.57;;
7957;SDS011;4024;52.172;5.378;2023-11-18T02:23:22;35.97;;;26.03;;
7957;SDS011;4024;52.172;5.378;2023-11-18T02:25:48;41.23;;;27.53;;
7957;SDS011;4024;52.172;5.378;2023-11-18T02:28:14;40.33;;;26.87;;
7957;SDS011;4024;52.172;5.378;2023-11-18T02:30:40;36.77;;;25.80;;
7957;SDS011;4024;52.172;5.378;2023-11-18T02:33:10;37.77;;;27.27;;
7957;SDS011;4024;52.172;5.378;2023-11-18T02:35:53;40.13;;;26.87;;
7957;SDS011;4024;52.172;5.378;2023-11-18T02:38:26;38.30;;;27.40;;
7957;SDS011;4024;52.172;5.378;2023-11-18T02:40:57;35.50;;;26.27;;
7957;SDS011;4024;52.172;5.378;2023-11-18T02:43:25;37.80;;;25.17;;
7957;SDS011;4024;52.172;5.378;2023-11-18T02:45:53;43.73;;;27.97;;
7957;SDS011;4024;52.172;5.378;2023-11-18T02:48:22;38.33;;;26.20;;
7957;SDS011;4024;52.172;5.378;2023-11-18T02:50:48;37.37;;;27.47;;
7957;SDS011;4024;52.172;5.378;2023-11-18T02:53:14;40.20;;;27.53;;
7957;SDS011;4024;52.172;5.378;2023-11-18T02:55:40;38.30;;;25.10;;
7957;SDS011;4024;52.172;5.378;2023-11-18T02:58:06;38.60;;;26.90;;
7957;SDS011;4024;52.172;5.378;2023-11-18T03:00:32;36.27;;;25.83;;
7957;SDS011;4024;52.172;5.378;2023-11-18T03:02:58;39.03;;;26.97;;
7957;SDS011;4024;52.172;5.378;2023-11-18T03:05:24;37.87;;;27.03;;
7957;SDS011;4024;52.172;5.378;2023-11-18T03:07:52;37.53;;;27.47;;
7957;SDS011;4024;52.172;5.378;2023-11-18T03:10:22;40.97;;;29.63;;
7957;SDS011;4024;52.172;5.378;2023-11-18T03:12:48;41.47;;;28.47;;
7957;SDS011;4024;52.172;5.378;2023-11-18T03:15:18;39.70;;;27.17;;
7957;SDS011;4024;52.172;5.378;2023-11-18T03:17:45;37.90;;;27.30;;
7957;SDS011;4024;52.172;5.378;2023-11-18T03:20:11;38.33;;;26.83;;
7957;SDS011;4024;52.172;5.378;2023-11-18T03:22:39;42.73;;;27.17;;
7957;SDS011;4024;52.172;5.378;2023-11-18T03:25:05;42.47;;;28.30;;
7957;SDS011;4024;52.172;5.378;2023-11-18T03:27:32;38.67;;;26.47;;
7957;SDS011;4024;52.172;5.378;2023-11-18T03:30:01;46.60;;;29.23;;
7957;SDS011;4024;52.172;5.378;2023-11-18T03:32:28;40.70;;;28.23;;
7957;SDS011;4024;52.172;5.378;2023-11-18T03:34:59;38.97;;;27.03;;
7957;SDS011;4024;52.172;5.378;2023-11-18T03:39:56;41.67;;;27.80;;
7957;SDS011;4024;52.172;5.378;2023-11-18T03:42:24;43.50;;;28.47;;
7957;SDS011;4024;52.172;5.378;2023-11-18T03:44:51;43.53;;;28.07;;
7957;SDS011;4024;52.172;5.378;2023-11-18T03:47:16;40.43;;;28.63;;
7957;SDS011;4024;52.172;5.378;2023-11-18T03:49:43;43.27;;;29.63;;
7957;SDS011;4024;52.172;5.378;2023-11-18T03:52:09;40.50;;;28.83;;
7957;SDS011;4024;52.172;5.378;2023-11-18T03:54:35;39.90;;;29.30;;
7957;SDS011;4024;52.172;5.378;2023-11-18T03:57:01;41.20;;;28.40;;
7957;SDS011;4024;52.172;5.378;2023-11-18T03:59:26;41.20;;;28.57;;
7957;SDS011;4024;52.172;5.378;2023-11-18T04:01:53;43.23;;;29.40;;
7957;SDS011;4024;52.172;5.378;2023-11-18T04:04:18;43.33;;;29.87;;
7957;SDS011;4024;52.172;5.378;2023-11-18T04:06:44;41.90;;;29.07;;
7957;SDS011;4024;52.172;5.378;2023-11-18T04:09:11;43.47;;;28.90;;
7957;SDS011;4024;52.172;5.378;2023-11-18T04:11:38;39.20;;;28.33;;
7957;SDS011;4024;52.172;5.378;2023-11-18T04:14:04;40.47;;;29.50;;
7957;SDS011;4024;52.172;5.378;2023-11-18T04:16:30;41.63;;;29.17;;
7957;SDS011;4024;52.172;5.378;2023-11-18T04:18:55;42.23;;;28.97;;
7957;SDS011;4024;52.172;5.378;2023-11-18T04:21:21;49.07;;;31.07;;
7957;SDS011;4024;52.172;5.378;2023-11-18T04:23:47;42.27;;;28.27;;
7957;SDS011;4024;52.172;5.378;2023-11-18T04:26:13;40.13;;;28.60;;
7957;SDS011;4024;52.172;5.378;2023-11-18T04:28:38;41.53;;;28.97;;
7957;SDS011;4024;52.172;5.378;2023-11-18T04:31:04;37.17;;;27.23;;
7957;SDS011;4024;52.172;5.378;2023-11-18T04:33:31;41.30;;;27.87;;
7957;SDS011;4024;52.172;5.378;2023-11-18T04:35:56;41.00;;;28.07;;
7957;SDS011;4024;52.172;5.378;2023-11-18T04:38:23;40.10;;;27.87;;
7957;SDS011;4024;52.172;5.378;2023-11-18T04:40:49;39.60;;;29.10;;
7957;SDS011;4024;52.172;5.378;2023-11-18T04:43:14;36.53;;;27.63;;
7957;SDS011;4024;52.172;5.378;2023-11-18T04:45:41;35.20;;;28.10;;
7957;SDS011;4024;52.172;5.378;2023-11-18T04:48:07;38.77;;;28.00;;
7957;SDS011;4024;52.172;5.378;2023-11-18T04:50:33;39.50;;;27.20;;
7957;SDS011;4024;52.172;5.378;2023-11-18T04:52:59;39.23;;;28.63;;
7957;SDS011;4024;52.172;5.378;2023-11-18T04:55:25;39.17;;;28.67;;
7957;SDS011;4024;52.172;5.378;2023-11-18T04:57:54;39.87;;;27.67;;
7957;SDS011;4024;52.172;5.378;2023-11-18T05:00:20;37.93;;;27.10;;
7957;SDS011;4024;52.172;5.378;2023-11-18T05:02:46;38.97;;;27.00;;
7957;SDS011;4024;52.172;5.378;2023-11-18T05:05:13;39.80;;;28.13;;
7957;SDS011;4024;52.172;5.378;2023-11-18T05:07:42;36.53;;;27.50;;
7957;SDS011;4024;52.172;5.378;2023-11-18T05:10:09;38.43;;;26.70;;
7957;SDS011;4024;52.172;5.378;2023-11-18T05:12:38;37.03;;;26.80;;
7957;SDS011;4024;52.172;5.378;2023-11-18T05:15:05;35.73;;;27.30;;
7957;SDS011;4024;52.172;5.378;2023-11-18T05:17:33;36.93;;;26.47;;
7957;SDS011;4024;52.172;5.378;2023-11-18T05:20:03;39.20;;;28.00;;
7957;SDS011;4024;52.172;5.378;2023-11-18T05:22:29;37.20;;;27.47;;
7957;SDS011;4024;52.172;5.378;2023-11-18T05:24:56;35.30;;;27.33;;
7957;SDS011;4024;52.172;5.378;2023-11-18T05:27:22;36.63;;;27.10;;
7957;SDS011;4024;52.172;5.378;2023-11-18T05:29:48;37.40;;;27.03;;
7957;SDS011;4024;52.172;5.378;2023-11-18T05:32:19;36.23;;;27.30;;
7957;SDS011;4024;52.172;5.378;2023-11-18T05:34:45;36.83;;;27.53;;
7957;SDS011;4024;52.172;5.378;2023-11-18T05:37:12;36.77;;;26.00;;
7957;SDS011;4024;52.172;5.378;2023-11-18T05:39:38;37.37;;;26.97;;
7957;SDS011;4024;52.172;5.378;2023-11-18T05:42:09;38.33;;;27.37;;
7957;SDS011;4024;52.172;5.378;2023-11-18T05:44:36;38.17;;;26.80;;
7957;SDS011;4024;52.172;5.378;2023-11-18T05:47:04;39.93;;;27.07;;
7957;SDS011;4024;52.172;5.378;2023-11-18T05:49:31;38.73;;;26.97;;
7957;SDS011;4024;52.172;5.378;2023-11-18T05:51:58;35.30;;;26.10;;
7957;SDS011;4024;52.172;5.378;2023-11-18T05:54:24;34.53;;;26.17;;
7957;SDS011;4024;52.172;5.378;2023-11-18T05:56:49;37.23;;;24.87;;
7957;SDS011;4024;52.172;5.378;2023-11-18T05:59:15;32.47;;;25.03;;
7957;SDS011;4024;52.172;5.378;2023-11-18T06:01:42;35.30;;;24.40;;
7957;SDS011;4024;52.172;5.378;2023-11-18T06:04:07;34.80;;;25.27;;
7957;SDS011;4024;52.172;5.378;2023-11-18T06:06:35;37.30;;;25.40;;
7957;SDS011;4024;52.172;5.378;2023-11-18T06:09:02;34.87;;;24.40;;
7957;SDS011;4024;52.172;5.378;2023-11-18T06:11:34;35.43;;;24.37;;
7957;SDS011;4024;52.172;5.378;2023-11-18T06:14:00;31.30;;;24.80;;
7957;SDS011;4024;52.172;5.378;2023-11-18T06:16:26;32.37;;;23.17;;
7957;SDS011;4024;52.172;5.378;2023-11-18T06:18:53;33.30;;;23.43;;
7957;SDS011;4024;52.172;5.378;2023-11-18T06:21:20;37.63;;;24.20;;
7957;SDS011;4024;52.172;5.378;2023-11-18T06:23:53;37.57;;;24.43;;
7957;SDS011;4024;52.172;5.378;2023-11-18T06:26:22;35.63;;;23.90;;
7957;SDS011;4024;52.172;5.378;2023-11-18T06:28:54;34.53;;;24.57;;
7957;SDS011;4024;52.172;5.378;2023-11-18T06:31:20;31.73;;;22.63;;
7957;SDS011;4024;52.172;5.378;2023-11-18T06:33:48;33.90;;;22.47;;
7957;SDS011;4024;52.172;5.378;2023-11-18T06:38:43;32.67;;;22.47;;
7957;SDS011;4024;52.172;5.378;2023-11-18T06:41:10;31.13;;;21.67;;
7957;SDS011;4024;52.172;5.378;2023-11-18T06:43:38;32.63;;;22.93;;
7957;SDS011;4024;52.172;5.378;2023-11-18T06:46:25;36.67;;;20.83;;
7957;SDS011;4024;52.172;5.378;2023-11-18T06:48:58;28.13;;;20.90;;
7957;SDS011;4024;52.172;5.378;2023-11-18T06:51:25;32.50;;;21.27;;
7957;SDS011;4024;52.172;5.378;2023-11-18T06:53:52;30.33;;;20.27;;
7957;SDS011;4024;52.172;5.378;2023-11-18T06:56:22;30.87;;;20.13;;
7957;SDS011;4024;52.172;5.378;2023-11-18T06:58:48;34.77;;;21.33;;
7957;SDS011;4024;52.172;5.378;2023-11-18T07:01:14;30.27;;;19.80;;
7957;SDS011;4024;52.172;5.378;2023-11-18T07:03:43;33.43;;;21.67;;
7957;SDS011;4024;52.172;5.378;2023-11-18T07:06:09;35.23;;;19.87;;
7957;SDS011;4024;52.172;5.378;2023-11-18T07:08:35;31.23;;;20.57;;
7957;SDS011;4024;52.172;5.378;2023-11-18T07:11:03;31.40;;;20.00;;
7957;SDS011;4024;52.172;5.378;2023-11-18T07:13:29;31.00;;;19.27;;
7957;SDS011;4024;52.172;5.378;2023-11-18T07:15:54;28.90;;;18.77;;
7957;SDS011;4024;52.172;5.378;2023-11-18T07:18:22;30.97;;;20.20;;
7957;SDS011;4024;52.172;5.378;2023-11-18T07:20:49;31.43;;;20.27;;
7957;SDS011;4024;52.172;5.378;2023-11-18T07:23:16;31.40;;;19.57;;
7957;SDS011;4024;52.172;5.378;2023-11-18T07:25:42;33.13;;;20.60;;
7957;SDS011;4024;52.172;5.378;2023-11-18T07:28:09;30.83;;;19.00;;
7957;SDS011;4024;52.172;5.378;2023-11-18T07:30:35;30.50;;;19.20;;
7957;SDS011;4024;52.172;5.378;2023-11-18T07:33:02;27.63;;;19.83;;
7957;SDS011;4024;52.172;5.378;2023-11-18T07:35:28;27.33;;;18.63;;
7957;SDS011;4024;52.172;5.378;2023-11-18T07:37:54;29.87;;;19.47;;
7957;SDS011;4024;52.172;5.378;2023-11-18T07:40:21;26.53;;;19.60;;
7957;SDS011;4024;52.172;5.378;2023-11-18T07:42:53;28.67;;;19.20;;
7957;SDS011;4024;52.172;5.378;2023-11-18T07:45:20;28.13;;;18.97;;
7957;SDS011;4024;52.172;5.378;2023-11-18T07:47:51;32.73;;;20.43;;
7957;SDS011;4024;52.172;5.378;2023-11-18T07:50:17;31.83;;;19.33;;
7957;SDS011;4024;52.172;5.378;2023-11-18T07:52:45;29.27;;;18.40;;
7957;SDS011;4024;52.172;5.378;2023-11-18T07:55:12;28.23;;;18.83;;
7957;SDS011;4024;52.172;5.378;2023-11-18T07:57:38;28.43;;;18.33;;
7957;SDS011;4024;52.172;5.378;2023-11-18T08:00:04;27.97;;;18.33;;
7957;SDS011;4024;52.172;5.378;2023-11-18T08:02:34;28.53;;;18.37;;
7957;SDS011;4024;52.172;5.378;2023-11-18T08:05:01;25.33;;;18.40;;
7957;SDS011;4024;52.172;5.378;2023-11-18T08:07:28;28.43;;;18.57;;
7957;SDS011;4024;52.172;5.378;2023-11-18T08:09:54;24.93;;;18.33;;
7957;SDS011;4024;52.172;5.378;2023-11-18T08:12:19;30.93;;;18.67;;
7957;SDS011;4024;52.172;5.378;2023-11-18T08:14:45;27.43;;;18.17;;
7957;SDS011;4024;52.172;5.378;2023-11-18T08:17:12;28.93;;;17.53;;
7957;SDS011;4024;52.172;5.378;2023-11-18T08:19:38;27.27;;;19.87;;
7957;SDS011;4024;52.172;5.378;2023-11-18T08:22:04;23.20;;;17.60;;
7957;SDS011;4024;52.172;5.378;2023-11-18T08:24:31;26.70;;;17.63;;
7957;SDS011;4024;52.172;5.378;2023-11-18T08:26:58;26.73;;;17.23;;
7957;SDS011;4024;52.172;5.378;2023-11-18T08:29:24;29.30;;;18.37;;
7957;SDS011;4024;52.172;5.378;2023-11-18T08:31:56;25.93;;;18.23;;
7957;SDS011;4024;52.172;5.378;2023-11-18T08:34:21;25.27;;;17.47;;
7957;SDS011;4024;52.172;5.378;2023-11-18T08:36:48;26.00;;;17.23;;
7957;SDS011;4024;52.172;5.378;2023-11-18T08:39:16;25.80;;;17.30;;
7957;SDS011;4024;52.172;5.378;2023-11-18T08:41:45;23.57;;;16.13;;
7957;SDS011;4024;52.172;5.378;2023-11-18T08:44:11;24.77;;;16.67;;
7957;SDS011;4024;52.172;5.378;2023-11-18T08:46:40;23.10;;;16.17;;
7957;SDS011;4024;52.172;5.378;2023-11-18T08:49:07;20.47;;;15.80;;
7957;SDS011;4024;52.172;5.378;2023-11-18T08:51:39;22.40;;;15.07;;
7957;SDS011;4024;52.172;5.378;2023-11-18T08:54:07;21.07;;;14.87;;
7957;SDS011;4024;52.172;5.378;2023-11-18T08:56:53;19.53;;;14.37;;
7957;SDS011;4024;52.172;5.378;2023-11-18T08:59:22;22.20;;;15.13;;
7957;SDS011;4024;52.172;5.378;2023-11-18T09:01:51;18.90;;;14.27;;
7957;SDS011;4024;52.172;5.378;2023-11-18T09:04:21;18.93;;;14.10;;
7957;SDS011;4024;52.172;5.378;2023-11-18T09:06:48;18.40;;;14.23;;
7957;SDS011;4024;52.172;5.378;2023-11-18T09:09:14;18.13;;;13.57;;
7957;SDS011;4024;52.172;5.378;2023-11-18T09:11:40;21.20;;;13.70;;
7957;SDS011;4024;52.172;5.378;2023-11-18T09:14:07;19.63;;;14.20;;
7957;SDS011;4024;52.172;5.378;2023-11-18T09:16:33;19.77;;;14.23;;
7957;SDS011;4024;52.172;5.378;2023-11-18T09:19:04;21.03;;;13.53;;
7957;SDS011;4024;52.172;5.378;2023-11-18T09:21:31;15.40;;;11.97;;
7957;SDS011;4024;52.172;5.378;2023-11-18T09:24:00;21.73;;;13.53;;
7957;SDS011;4024;52.172;5.378;2023-11-18T09:26:29;18.23;;;12.13;;
7957;SDS011;4024;52.172;5.378;2023-11-18T09:28:55;22.17;;;13.20;;
7957;SDS011;4024;52.172;5.378;2023-11-18T09:31:22;16.77;;;12.87;;
7957;SDS011;4024;52.172;5.378;2023-11-18T09:33:48;17.63;;;12.40;;
7957;SDS011;4024;52.172;5.378;2023-11-18T09:36:22;17.07;;;11.43;;
7957;SDS011;4024;52.172;5.378;2023-11-18T09:38:48;15.27;;;11.77;;
7957;SDS011;4024;52.172;5.378;2023-11-18T09:41:15;15.97;;;12.33;;
7957;SDS011;4024;52.172;5.378;2023-11-18T09:43:42;18.77;;;12.07;;
7957;SDS011;4024;52.172;5.378;2023-11-18T09:46:15;17.40;;;11.43;;
7957;SDS011;4024;52.172;5.378;2023-11-18T09:48:45;17.17;;;11.63;;
7957;SDS011;4024;52.172;5.378;2023-11-18T09:51:22;15.33;;;10.67;;
7957;SDS011;4024;52.172;5.378;2023-11-18T09:53:55;17.17;;;11.17;;
7957;SDS011;4024;52.172;5.378;2023-11-18T09:56:34;16.23;;;11.83;;
7957;SDS011;4024;52.172;5.378;2023-11-18T10:02:24;15.67;;;11.87;;
7957;SDS011;4024;52.172;5.378;2023-11-18T10:04:49;15.40;;;11.50;;
7957;SDS011;4024;52.172;5.378;2023-11-18T10:07:23;17.73;;;11.30;;
7957;SDS011;4024;52.172;5.378;2023-11-18T10:09:53;14.97;;;11.13;;
7957;SDS011;4024;52.172;5.378;2023-11-18T10:12:22;18.17;;;11.40;;
7957;SDS011;4024;52.172;5.378;2023-11-18T10:14:49;14.33;;;10.37;;
7957;SDS011;4024;52.172;5.378;2023-11-18T10:17:17;17.30;;;10.73;;
7957;SDS011;4024;52.172;5.378;2023-11-18T10:20:16;15.30;;;11.10;;
7957;SDS011;4024;52.172;5.378;2023-11-18T10:22:37;14.87;;;10.23;;
7957;SDS011;4024;52.172;5.378;2023-11-18T10:25:03;16.27;;;10.83;;
7957;SDS011;4024;52.172;5.378;2023-11-18T10:27:31;15.03;;;11.10;;
7957;SDS011;4024;52.172;5.378;2023-11-18T10:30:05;16.47;;;11.13;;
7957;SDS011;4024;52.172;5.378;2023-11-18T10:32:44;16.03;;;10.63;;
7957;SDS011;4024;52.172;5.378;2023-11-18T10:35:36;13.83;;;10.30;;
7957;SDS011;4024;52.172;5.378;2023-11-18T10:38:02;16.83;;;10.70;;
7957;SDS011;4024;52.172;5.378;2023-11-18T10:40:34;13.67;;;10.50;;
7957;SDS011;4024;52.172;5.378;2023-11-18T10:43:02;15.10;;;10.17;;
7957;SDS011;4024;52.172;5.378;2023-11-18T10:45:34;17.10;;;10.60;;
7957;SDS011;4024;52.172;5.378;2023-11-18T10:48:06;13.77;;;10.37;;
7957;SDS011;4024;52.172;5.378;2023-11-18T10:50:32;14.37;;;9.90;;
7957;SDS011;4024;52.172;5.378;2023-11-18T10:52:58;14.43;;;10.47;;
7957;SDS011;4024;52.172;5.378;2023-11-18T10:55:37;15.43;;;10.13;;
7957;SDS011;4024;52.172;5.378;2023-11-18T10:58:04;17.20;;;9.90;;
7957;SDS011;4024;52.172;5.378;2023-11-18T11:00:45;16.20;;;10.27;;
7957;SDS011;4024;52.172;5.378;2023-11-18T11:03:13;16.27;;;10.07;;
7957;SDS011;4024;52.172;5.378;2023-11-18T11:05:39;13.23;;;9.63;;
7957;SDS011;4024;52.172;5.378;2023-11-18T11:08:07;12.93;;;10.03;;
7957;SDS011;4024;52.172;5.378;2023-11-18T11:10:33;11.63;;;9.97;;
7957;SDS011;4024;52.172;5.378;2023-11-18T11:13:01;11.90;;;9.03;;
7957;SDS011;4024;52.172;5.378;2023-11-18T11:15:31;15.13;;;9.33;;
7957;SDS011;4024;52.172;5.378;2023-11-18T11:18:07;13.03;;;9.13;;
7957;SDS011;4024;52.172;5.378;2023-11-18T11:20:41;12.47;;;8.83;;
7957;SDS011;4024;52.172;5.378;2023-11-18T11:31:23;12.40;;;8.17;;
7957;SDS011;4024;52.172;5.378;2023-11-18T11:34:06;14.43;;;9.30;;
7957;SDS011;4024;52.172;5.378;2023-11-18T11:36:42;13.73;;;8.93;;
7957;SDS011;4024;52.172;5.378;2023-11-18T11:39:11;13.03;;;8.47;;
7957;SDS011;4024;52.172;5.378;2023-11-18T11:41:44;16.07;;;9.50;;
7957;SDS011;4024;52.172;5.378;2023-11-18T11:44:12;11.10;;;8.67;;
7957;SDS011;4024;52.172;5.378;2023-11-18T11:46:38;12.90;;;8.53;;
7957;SDS011;4024;52.172;5.378;2023-11-18T11:49:07;13.00;;;8.17;;
7957;SDS011;4024;52.172;5.378;2023-11-18T11:52:03;12.00;;;8.67;;
7957;SDS011;4024;52.172;5.378;2023-11-18T11:54:37;13.63;;;7.77;;
7957;SDS011;4024;52.172;5.378;2023-11-18T11:57:09;11.70;;;7.77;;
7957;SDS011;4024;52.172;5.378;2023-11-18T12:02:10;12.57;;;8.27;;
7957;SDS011;4024;52.172;5.378;2023-11-18T12:04:43;10.27;;;7.53;;
7957;SDS011;4024;52.172;5.378;2023-11-18T12:07:17;9.60;;;7.57;;
7957;SDS011;4024;52.172;5.378;2023-11-18T12:09:48;12.43;;;7.87;;
7957;SDS011;4024;52.172;5.378;2023-11-18T12:12:21;10.03;;;7.20;;
7957;SDS011;4024;52.172;5.378;2023-11-18T12:14:52;10.40;;;7.27;;
7957;SDS011;4024;52.172;5.378;2023-11-18T12:17:17;13.43;;;7.57;;
7957;SDS011;4024;52.172;5.378;2023-11-18T12:19:46;10.40;;;6.67;;
7957;SDS011;4024;52.172;5.378;2023-11-18T12:22:14;14.33;;;7.30;;
7957;SDS011;4024;52.172;5.378;2023-11-18T12:41:34;11.07;;;5.70;;
7957;SDS011;4024;52.172;5.378;2023-11-18T12:44:16;7.63;;;5.70;;
7957;SDS011;4024;52.172;5.378;2023-11-18T12:47:17;9.70;;;5.60;;
7957;SDS011;4024;52.172;5.378;2023-11-18T12:49:47;9.67;;;5.53;;
7957;SDS011;4024;52.172;5.378;2023-11-18T12:52:20;8.43;;;5.23;;
7957;SDS011;4024;52.172;5.378;2023-11-18T12:54:47;12.70;;;5.37;;
7957;SDS011;4024;52.172;5.378;2023-11-18T12:57:16;7.77;;;5.47;;
7957;SDS011;4024;52.172;5.378;2023-11-18T12:59:47;6.80;;;4.53;;
7957;SDS011;4024;52.172;5.378;2023-11-18T13:02:15;6.43;;;4.73;;
7957;SDS011;4024;52.172;5.378;2023-11-18T13:04:51;8.57;;;4.80;;
7957;SDS011;4024;52.172;5.378;2023-11-18T13:07:19;9.70;;;4.53;;
7957;SDS011;4024;52.172;5.378;2023-11-18T13:09:47;7.67;;;4.60;;
7957;SDS011;4024;52.172;5.378;2023-11-18T13:12:13;8.57;;;4.50;;
7957;SDS011;4024;52.172;5.378;2023-11-18T13:14:41;6.57;;;4.67;;
7957;SDS011;4024;52.172;5.378;2023-11-18T13:17:10;7.40;;;4.63;;
7957;SDS011;4024;52.172;5.378;2023-11-18T13:19:37;6.20;;;4.30;;
7957;SDS011;4024;52.172;5.378;2023-11-18T13:22:05;6.93;;;4.27;;
7957;SDS011;4024;52.172;5.378;2023-11-18T13:24:34;7.87;;;4.43;;
7957;SDS011;4024;52.172;5.378;2023-11-18T13:27:01;5.20;;;4.43;;
7957;SDS011;4024;52.172;5.378;2023-11-18T13:29:31;7.37;;;4.60;;
7957;SDS011;4024;52.172;5.378;2023-11-18T13:31:58;8.23;;;4.13;;
7957;SDS011;4024;52.172;5.378;2023-11-18T13:34:25;5.57;;;3.97;;
7957;SDS011;4024;52.172;5.378;2023-11-18T13:36:52;5.37;;;3.77;;
7957;SDS011;4024;52.172;5.378;2023-11-18T13:39:18;6.53;;;3.83;;
7957;SDS011;4024;52.172;5.378;2023-11-18T13:41:49;5.63;;;3.80;;
7957;SDS011;4024;52.172;5.378;2023-11-18T13:47:07;4.30;;;3.90;;
7957;SDS011;4024;52.172;5.378;2023-11-18T13:49:36;4.27;;;3.67;;
7957;SDS011;4024;52.172;5.378;2023-11-18T13:52:08;5.47;;;3.67;;
7957;SDS011;4024;52.172;5.378;2023-11-18T13:54:36;5.73;;;3.97;;
7957;SDS011;4024;52.172;5.378;2023-11-18T13:57:03;5.37;;;3.67;;
7957;SDS011;4024;52.172;5.378;2023-11-18T13:59:30;5.03;;;3.50;;
7957;SDS011;4024;52.172;5.378;2023-11-18T14:01:56;3.97;;;3.13;;
7957;SDS011;4024;52.172;5.378;2023-11-18T14:04:32;4.50;;;3.20;;
7957;SDS011;4024;52.172;5.378;2023-11-18T14:06:59;4.70;;;3.20;;
7957;SDS011;4024;52.172;5.378;2023-11-18T14:09:27;4.33;;;3.40;;
7957;SDS011;4024;52.172;5.378;2023-11-18T14:11:55;4.13;;;3.10;;
7957;SDS011;4024;52.172;5.378;2023-11-18T14:14:21;3.57;;;2.77;;
7957;SDS011;4024;52.172;5.378;2023-11-18T14:16:48;5.67;;;3.10;;
7957;SDS011;4024;52.172;5.378;2023-11-18T14:19:14;5.97;;;3.27;;
7957;SDS011;4024;52.172;5.378;2023-11-18T14:21:40;3.80;;;2.87;;
7957;SDS011;4024;52.172;5.378;2023-11-18T14:24:07;4.83;;;2.70;;
7957;SDS011;4024;52.172;5.378;2023-11-18T14:26:33;4.20;;;3.47;;
7957;SDS011;4024;52.172;5.378;2023-11-18T14:28:59;3.50;;;2.70;;
7957;SDS011;4024;52.172;5.378;2023-11-18T14:31:25;4.47;;;2.87;;
7957;SDS011;4024;52.172;5.378;2023-11-18T14:33:51;3.70;;;3.23;;
7957;SDS011;4024;52.172;5.378;2023-11-18T14:36:19;4.10;;;3.07;;
7957;SDS011;4024;52.172;5.378;2023-11-18T14:38:45;3.30;;;3.00;;
7957;SDS011;4024;52.172;5.378;2023-11-18T14:41:12;3.83;;;2.67;;
7957;SDS011;4024;52.172;5.378;2023-11-18T14:43:38;4.20;;;3.27;;
7957;SDS011;4024;52.172;5.378;2023-11-18T14:46:03;4.10;;;2.70;;
7957;SDS011;4024;52.172;5.378;2023-11-18T14:48:29;3.07;;;2.77;;
7957;SDS011;4024;52.172;5.378;2023-11-18T14:50:55;2.90;;;2.70;;
7957;SDS011;4024;52.172;5.378;2023-11-18T14:53:22;3.80;;;2.53;;
7957;SDS011;4024;52.172;5.378;2023-11-18T14:55:48;3.17;;;2.80;;
7957;SDS011;4024;52.172;5.378;2023-11-18T14:58:14;3.07;;;2.80;;
7957;SDS011;4024;52.172;5.378;2023-11-18T15:00:40;3.20;;;2.77;;
7957;SDS011;4024;52.172;5.378;2023-11-18T15:03:07;3.03;;;2.53;;
7957;SDS011;4024;52.172;5.378;2023-11-18T15:05:33;3.93;;;3.00;;
7957;SDS011;4024;52.172;5.378;2023-11-18T15:07:59;3.30;;;2.93;;
7957;SDS011;4024;52.172;5.378;2023-11-18T15:10:26;3.50;;;3.00;;
7957;SDS011;4024;52.172;5.378;2023-11-18T15:12:56;3.10;;;2.83;;
7957;SDS011;4024;52.172;5.378;2023-11-18T15:15:24;3.53;;;3.00;;
7957;SDS011;4024;52.172;5.378;2023-11-18T15:17:57;2.77;;;2.57;;
7957;SDS011;4024;52.172;5.378;2023-11-18T15:20:23;3.93;;;2.87;;
7957;SDS011;4024;52.172;5.378;2023-11-18T15:22:50;2.93;;;2.57;;
7957;SDS011;4024;52.172;5.378;2023-11-18T15:25:16;4.37;;;2.60;;
7957;SDS011;4024;52.172;5.378;2023-11-18T15:27:45;2.97;;;2.50;;
7957;SDS011;4024;52.172;5.378;2023-11-18T15:30:12;2.60;;;2.40;;
7957;SDS011;4024;52.172;5.378;2023-11-18T15:32:39;2.70;;;2.50;;
7957;SDS011;4024;52.172;5.378;2023-11-18T15:35:06;2.70;;;2.50;;
7957;SDS011;4024;52.172;5.378;2023-11-18T15:37:34;3.13;;;2.83;;